Time;durP1;ratioP1;P1;durP2;ratioP2;P2;SDS_P1;SDS_P2;PMS_P1;PMS_P2;Temp;Humidity;BMP_temperature;BMP_pressure;BME280_temperature;BME280_humidity;BME280_pressure;Samples;Min_cycle;Max_cycle;Signal;HPM_P1;HPM_P2
2022/06/15 00:12:42;;;;;;;6.57;5.37;;;14.80;72.00;;;;;;2615328;54;20451;-78
2022/06/15 00:18:30;;;;;;;6.03;4.87;;;14.60;84.80;;;;;;2612702;54;20150;-76
2022/06/15 00:24:18;;;;;;;8.33;6.10;;;14.30;92.30;;;;;;2613424;54;20384;-77
2022/06/15 00:30:07;;;;;;;8.70;5.80;;;14.70;89.90;;;;;;2615154;54;20139;-77
2022/06/15 00:35:59;;;;;;;10.23;5.40;;;14.40;91.40;;;;;;2612853;39;20806;-78
2022/06/15 00:41:47;;;;;;;5.13;4.57;;;14.30;94.90;;;;;;2614638;54;20359;-77
2022/06/15 00:47:39;;;;;;;6.37;5.00;;;14.30;94.30;;;;;;2615386;54;20162;-77
2022/06/15 00:50:43;;;;;;;6.10;4.87;;;14.20;95.40;;;;;;2615125;54;21253;-75
2022/06/15 00:53:08;;;;;;;5.70;5.20;;;14.10;97.90;;;;;;2613062;47;20438;-76
2022/06/15 00:59:01;;;;;;;12.77;5.80;;;14.00;99.90;;;;;;2614355;54;20697;-76
2022/06/15 01:21:45;;;;;;;18.63;6.07;;;13.80;99.90;;;;;;2612417;54;20363;-74
2022/06/15 02:04:26;;;;;;;8.33;5.67;;;12.80;99.90;;;;;;2613542;54;20402;-79
2022/06/15 02:20:47;;;;;;;11.30;9.20;;;12.90;99.90;;;;;;2612522;54;20491;-78
2022/06/15 02:26:38;;;;;;;13.23;7.23;;;12.80;99.90;;;;;;2613308;54;20398;-78
2022/06/15 02:32:26;;;;;;;8.03;7.23;;;13.00;99.90;;;;;;2614278;54;20366;-78
2022/06/15 02:38:15;;;;;;;9.07;7.33;;;12.60;99.90;;;;;;2612430;54;20427;-78
2022/06/15 02:44:05;;;;;;;11.60;7.07;;;12.60;99.90;;;;;;2611307;54;20934;-78
2022/06/15 02:49:52;;;;;;;9.67;7.23;;;12.60;99.90;;;;;;2611782;54;20403;-79
2022/06/15 02:55:41;;;;;;;9.17;7.40;;;12.50;99.90;;;;;;2613520;54;20412;-78
2022/06/15 03:01:29;;;;;;;10.53;7.70;;;12.40;99.90;;;;;;2613803;39;20711;-78
2022/06/15 03:07:19;;;;;;;9.57;7.50;;;12.30;99.90;;;;;;2614333;54;20675;-78
2022/06/15 03:13:06;;;;;;;10.00;7.10;;;12.10;99.90;;;;;;2613700;54;20904;-77
2022/06/15 03:18:54;;;;;;;11.17;8.30;;;12.10;99.90;;;;;;2614003;54;20147;-78
2022/06/15 03:24:42;;;;;;;10.70;7.90;;;12.20;99.90;;;;;;2615129;31;20597;-78
2022/06/15 03:30:30;;;;;;;11.23;8.23;;;12.20;99.90;;;;;;2614426;54;20134;-79
2022/06/15 03:36:18;;;;;;;11.03;9.40;;;12.10;99.90;;;;;;2614139;54;20134;-79
2022/06/15 03:48:32;;;;;;;14.10;7.70;;;12.20;99.90;;;;;;2616436;54;20382;-78
2022/06/15 03:54:20;;;;;;;10.10;8.63;;;12.20;99.90;;;;;;2615221;54;20374;-79
2022/06/15 04:00:11;;;;;;;9.03;7.80;;;12.00;99.90;;;;;;2616245;54;20150;-77
2022/06/15 04:06:00;;;;;;;13.97;7.60;;;12.10;99.90;;;;;;2616100;54;20439;-78
2022/06/15 04:17:56;;;;;;;11.60;7.90;;;12.50;99.90;;;;;;2614550;39;20780;-77
2022/06/15 04:23:44;;;;;;;8.60;7.70;;;12.60;99.90;;;;;;2613399;54;20386;-76
2022/06/15 04:29:31;;;;;;;13.80;7.87;;;12.50;99.90;;;;;;2615479;54;20130;-77
2022/06/15 04:35:20;;;;;;;8.70;7.57;;;12.80;99.90;;;;;;2615826;39;20662;-77
2022/06/15 04:41:07;;;;;;;8.73;7.63;;;13.20;99.90;;;;;;2615240;54;20463;-76
2022/06/15 04:46:55;;;;;;;11.33;7.50;;;13.90;99.90;;;;;;2614426;54;20133;-77
2022/06/15 04:52:46;;;;;;;11.03;8.10;;;15.10;99.90;;;;;;2613303;54;20503;-78
2022/06/15 04:58:35;;;;;;;8.00;7.37;;;16.10;94.40;;;;;;2613635;54;20383;-77
2022/06/15 05:04:22;;;;;;;11.97;8.27;;;16.80;75.50;;;;;;2614625;54;20400;-76
2022/06/15 05:10:14;;;;;;;15.90;7.63;;;16.80;72.30;;;;;;2614603;54;20271;-76
2022/06/15 05:16:02;;;;;;;9.40;7.03;;;16.80;71.30;;;;;;2613106;54;20428;-74
2022/06/15 05:21:49;;;;;;;9.53;6.80;;;16.50;68.60;;;;;;2613554;54;20159;-76
2022/06/15 05:27:38;;;;;;;11.13;7.57;;;17.30;64.30;;;;;;2613423;54;20124;-76
2022/06/15 05:33:27;;;;;;;12.27;7.80;;;17.60;54.30;;;;;;2614591;54;20429;-76
2022/06/15 05:39:14;;;;;;;13.77;8.27;;;17.90;49.00;;;;;;2614687;54;20406;-75
2022/06/15 05:45:03;;;;;;;8.00;6.73;;;18.60;37.50;;;;;;2614121;54;20170;-75
2022/06/15 05:50:51;;;;;;;10.70;7.50;;;18.70;31.70;;;;;;2615288;54;20497;-75
2022/06/15 05:56:38;;;;;;;9.33;8.43;;;19.40;28.80;;;;;;2611200;54;20154;-75
2022/06/15 05:59:23;;;;;;;7.90;7.10;;;19.50;25.30;;;;;;2613231;47;20449;-75
2022/06/15 06:01:49;;;;;;;7.10;6.50;;;19.50;18.80;;;;;;2614208;54;20198;-75
2022/06/15 06:07:36;;;;;;;8.33;6.97;;;19.60;20.10;;;;;;2614675;54;20177;-77
2022/06/15 06:13:24;;;;;;;7.80;6.73;;;20.00;16.40;;;;;;2614654;54;20161;-77
2022/06/15 06:19:12;;;;;;;8.70;6.80;;;20.20;15.50;;;;;;2615291;54;20159;-76
2022/06/15 06:24:59;;;;;;;9.97;7.30;;;20.80;11.00;;;;;;2612178;54;20127;-75
2022/06/15 06:30:47;;;;;;;8.10;6.40;;;21.00;9.00;;;;;;2615538;46;20143;-75
2022/06/15 06:36:39;;;;;;;10.70;6.67;;;21.60;6.00;;;;;;2614459;54;20134;-77
2022/06/15 06:42:27;;;;;;;10.13;6.63;;;21.80;4.90;;;;;;2614396;54;20420;-76
2022/06/15 06:48:15;;;;;;;7.27;6.17;;;22.00;3.90;;;;;;2614221;54;20145;-76
2022/06/15 06:51:19;;;;;;;6.43;5.93;;;22.20;3.80;;;;;;2614405;54;21000;-75
2022/06/15 06:53:44;;;;;;;7.57;6.80;;;22.60;3.00;;;;;;2614252;54;21016;-75
2022/06/15 06:59:33;;;;;;;9.70;6.53;;;22.60;3.00;;;;;;2614486;54;20669;-79
2022/06/15 07:05:20;;;;;;;13.33;7.63;;;22.90;1.30;;;;;;2614391;54;20291;-78
2022/06/15 07:21:27;;;;;;;6.60;6.07;;;23.70;1.00;;;;;;2613909;54;20399;-79
2022/06/15 07:27:15;;;;;;;6.53;5.93;;;24.20;1.00;;;;;;2613345;54;20396;-79
2022/06/15 07:33:03;;;;;;;12.40;6.43;;;24.00;1.00;;;;;;2614817;54;20451;-80
2022/06/15 07:38:51;;;;;;;11.80;6.80;;;24.70;1.00;;;;;;2610569;54;20138;-80
2022/06/15 07:44:39;;;;;;;6.73;6.20;;;24.60;1.00;;;;;;2613043;54;20482;-79
2022/06/15 07:50:27;;;;;;;7.67;6.73;;;25.10;1.00;;;;;;2614528;54;20470;-79
2022/06/15 07:56:15;;;;;;;6.77;6.17;;;25.00;1.00;;;;;;2616643;46;20414;-79
2022/06/15 08:02:06;;;;;;;8.97;6.10;;;25.30;1.00;;;;;;2616345;54;20356;-78
2022/06/15 08:07:54;;;;;;;7.07;6.10;;;25.30;1.00;;;;;;2615989;54;20390;-79
2022/06/15 08:13:42;;;;;;;10.77;7.10;;;24.90;1.00;;;;;;2616400;54;20130;-79
2022/06/15 08:19:33;;;;;;;6.13;5.43;;;25.60;1.00;;;;;;2617053;54;20126;-80
2022/06/15 08:25:26;;;;;;;6.60;5.40;;;25.80;1.00;;;;;;2616354;54;20408;-77
2022/06/15 08:31:13;;;;;;;7.43;5.30;;;25.70;1.00;;;;;;2615101;54;20404;-77
2022/06/15 08:37:02;;;;;;;10.50;7.30;;;26.10;1.00;;;;;;2615970;39;20797;-77
2022/06/15 09:00:11;;;;;;;12.53;8.20;;;27.00;1.00;;;;;;2612911;54;20520;-77
2022/06/15 09:43:26;;;;;;;7.67;7.00;;;28.60;1.00;;;;;;2612534;54;20535;-80
2022/06/15 09:49:52;;;;;;;7.10;6.40;;;28.90;1.00;;;;;;2660205;36;20526;-80
2022/06/15 09:52:54;;;;;;;9.20;8.40;;;28.40;1.00;;;;;;2632409;36;20482;-79
2022/06/15 10:32:21;;;;;;;6.40;5.93;;;29.70;1.00;;;;;;2612856;54;20424;-80
2022/06/15 10:38:14;;;;;;;6.30;5.80;;;30.20;1.00;;;;;;2612156;54;20440;-80
2022/06/15 10:44:02;;;;;;;8.97;6.37;;;30.10;1.00;;;;;;2613700;54;20420;-80
2022/06/15 10:53:32;;;;;;;7.00;6.43;;;30.60;1.00;;;;;;2611226;54;20388;-79
2022/06/15 11:28:36;;;;;;;6.47;5.90;;;31.10;1.00;;;;;;2614604;54;20419;-79
2022/06/15 11:37:58;;;;;;;6.47;5.80;;;31.50;1.00;;;;;;2614611;54;20398;-79
2022/06/15 11:43:49;;;;;;;7.40;5.43;;;31.30;1.00;;;;;;2615182;54;20800;-82
2022/06/15 11:53:13;;;;;;;6.90;6.27;;;30.20;1.00;;;;;;2613775;54;20420;-75
2022/06/15 11:59:16;;;;;;;7.23;6.37;;;30.90;1.00;;;;;;2613408;46;20406;-76
2022/06/15 12:05:16;;;;;;;6.00;5.50;;;30.40;1.00;;;;;;2614066;54;21022;-76
2022/06/15 12:17:45;;;;;;;6.80;6.10;;;30.30;1.00;;;;;;2614674;54;20996;-76
2022/06/15 12:40:41;;;;;;;6.93;6.27;;;31.00;1.00;;;;;;2613916;54;20387;-78
2022/06/15 13:06:21;;;;;;;21.90;9.90;;;31.70;1.00;;;;;;2612318;54;20383;-75
2022/06/15 13:12:11;;;;;;;5.70;5.30;;;31.50;1.00;;;;;;2612735;54;20425;-76
2022/06/15 13:27:54;;;;;;;5.40;4.90;;;31.40;1.00;;;;;;2612570;54;20991;-76
2022/06/15 13:54:47;;;;;;;6.00;5.53;;;30.80;1.00;;;;;;2613174;54;20408;-74
2022/06/15 14:04:15;;;;;;;7.00;5.80;;;31.40;1.00;;;;;;2613431;54;20542;-74
2022/06/15 14:26:59;;;;;;;5.93;5.63;;;31.50;1.00;;;;;;2612119;54;20444;-75
2022/06/15 14:32:45;;;;;;;6.60;6.10;;;31.40;1.00;;;;;;2613361;54;20438;-75
2022/06/15 14:38:33;;;;;;;6.03;5.63;;;31.40;1.00;;;;;;2612655;54;20156;-75
2022/06/15 14:48:03;;;;;;;6.17;5.57;;;29.70;1.00;;;;;;2613093;54;20408;-78
2022/06/15 14:53:55;;;;;;;11.33;6.17;;;30.40;1.00;;;;;;2612591;54;20541;-78
2022/06/15 14:59:52;;;;;;;5.53;4.80;;;30.90;1.00;;;;;;2613586;54;20388;-78
2022/06/15 15:26:03;;;;;;;5.53;4.80;;;30.80;1.00;;;;;;2612797;54;20391;-76
2022/06/15 15:44:42;;;;;;;6.13;5.70;;;31.20;1.00;;;;;;2612413;54;20370;-77
2022/06/15 16:00:54;;;;;;;9.20;5.70;;;30.50;1.00;;;;;;2613101;54;20396;-77
2022/06/15 16:06:42;;;;;;;8.33;5.10;;;30.80;1.00;;;;;;2613525;54;20158;-75
2022/06/15 16:12:32;;;;;;;11.90;5.07;;;30.80;1.00;;;;;;2613421;54;20136;-75
2022/06/15 16:18:20;;;;;;;6.30;5.70;;;30.20;1.00;;;;;;2612184;39;20923;-75
2022/06/15 16:24:10;;;;;;;11.57;6.37;;;31.00;1.00;;;;;;2609620;54;20413;-78
2022/06/15 16:29:58;;;;;;;6.23;5.63;;;31.00;1.00;;;;;;2617654;54;20389;-80
2022/06/15 16:35:46;;;;;;;5.40;5.03;;;30.90;1.00;;;;;;2617929;54;20389;-81
2022/06/15 16:41:34;;;;;;;10.77;6.10;;;30.60;1.00;;;;;;2618411;39;20548;-82
2022/06/15 16:47:22;;;;;;;6.23;5.63;;;30.60;1.00;;;;;;2618000;54;20133;-80
2022/06/15 17:02:46;;;;;;;6.23;5.83;;;29.60;1.00;;;;;;2617779;54;20386;-79
2022/06/15 17:08:39;;;;;;;7.03;6.43;;;29.80;1.00;;;;;;2618793;39;20177;-82
2022/06/15 17:14:27;;;;;;;16.73;13.30;;;29.90;1.00;;;;;;2617409;54;20390;-80
2022/06/15 17:20:15;;;;;;;6.50;5.90;;;29.00;1.00;;;;;;2612823;54;20275;-80
2022/06/15 17:26:09;;;;;;;9.17;5.60;;;28.50;1.00;;;;;;2613304;46;20153;-80
2022/06/15 17:32:01;;;;;;;6.03;5.60;;;28.90;1.00;;;;;;2616222;54;20447;-80
2022/06/15 17:34:45;;;;;;;6.53;6.00;;;28.90;1.00;;;;;;2616698;54;20442;-82
2022/06/15 17:37:11;;;;;;;5.53;5.13;;;28.70;1.00;;;;;;2616855;39;20790;-79
2022/06/15 17:42:59;;;;;;;7.10;5.93;;;28.20;1.00;;;;;;2617345;54;20132;-78
2022/06/15 17:48:47;;;;;;;7.20;5.57;;;27.80;1.00;;;;;;2617077;54;20505;-80
2022/06/15 17:51:53;;;;;;;10.43;7.37;;;27.30;1.00;;;;;;2618292;54;20415;-79
2022/06/15 17:54:18;;;;;;;7.43;6.73;;;27.00;1.00;;;;;;2617369;54;20198;-81
2022/06/15 18:00:10;;;;;;;6.10;5.60;;;26.90;1.00;;;;;;2616480;54;20505;-81
2022/06/15 18:05:58;;;;;;;6.40;5.40;;;26.50;1.00;;;;;;2619697;54;20895;-79
2022/06/15 18:11:46;;;;;;;6.77;6.17;;;26.10;1.00;;;;;;2618389;54;20203;-79
2022/06/15 18:17:35;;;;;;;7.87;5.50;;;25.90;1.00;;;;;;2617447;54;20427;-81
2022/06/15 18:23:24;;;;;;;6.97;6.37;;;25.90;1.00;;;;;;2618102;54;21052;-81
2022/06/15 18:29:12;;;;;;;6.47;5.70;;;25.70;1.00;;;;;;2620176;54;20399;-81
2022/06/15 18:35:01;;;;;;;7.53;5.50;;;25.70;1.00;;;;;;2621433;39;20919;-79
2022/06/15 18:40:49;;;;;;;6.30;5.80;;;25.40;1.00;;;;;;2621088;54;20536;-79
2022/06/15 18:49:58;;;;;;;5.70;5.30;;;25.10;1.00;;;;;;2621528;54;20407;-82
2022/06/15 18:55:45;;;;;;;6.40;5.90;;;24.90;1.00;;;;;;2622233;39;20927;-79
2022/06/15 19:01:33;;;;;;;6.40;5.63;;;24.60;1.00;;;;;;2620899;54;20283;-80
2022/06/15 19:07:21;;;;;;;10.13;5.37;;;24.60;1.00;;;;;;2620854;54;20684;-81
2022/06/15 19:13:13;;;;;;;5.57;5.17;;;24.40;1.00;;;;;;2620286;54;20199;-80
2022/06/15 19:19:02;;;;;;;6.20;5.70;;;24.20;1.00;;;;;;2620335;54;20387;-81
2022/06/15 19:24:50;;;;;;;6.07;5.67;;;24.10;1.00;;;;;;2617979;54;20411;-80
2022/06/15 19:30:38;;;;;;;10.47;5.43;;;24.00;1.00;;;;;;2619527;54;20150;-81
2022/06/15 19:36:26;;;;;;;7.50;6.07;;;23.90;1.00;;;;;;2619291;54;20458;-81
2022/06/15 19:42:16;;;;;;;6.73;5.60;;;23.40;1.00;;;;;;2618389;54;20131;-80
2022/06/15 19:48:05;;;;;;;5.90;5.40;;;23.40;1.00;;;;;;2618906;54;20418;-81
2022/06/15 19:57:13;;;;;;;11.90;6.90;;;22.80;1.00;;;;;;2616099;54;20384;-80
2022/06/15 20:03:00;;;;;;;7.57;5.40;;;22.60;1.00;;;;;;2614776;54;20292;-80
2022/06/15 20:08:49;;;;;;;6.47;5.13;;;22.40;1.00;;;;;;2614969;54;20162;-81
2022/06/15 20:14:37;;;;;;;8.00;5.67;;;22.20;1.00;;;;;;2614474;54;20423;-81
2022/06/15 20:20:29;;;;;;;5.40;4.90;;;22.00;1.00;;;;;;2615477;54;20375;-83
2022/06/15 20:26:21;;;;;;;6.60;4.93;;;21.80;1.00;;;;;;2616590;54;20423;-79
2022/06/15 20:32:10;;;;;;;12.13;5.90;;;21.90;1.00;;;;;;2617618;54;20419;-80
2022/06/15 20:37:58;;;;;;;5.20;4.70;;;21.50;1.00;;;;;;2616473;54;20419;-79
2022/06/15 20:43:50;;;;;;;6.30;5.73;;;21.20;1.00;;;;;;2618112;54;21249;-76
2022/06/15 20:49:44;;;;;;;7.70;5.47;;;21.10;1.00;;;;;;2617637;54;20415;-82
2022/06/15 20:52:12;;;;;;;8.27;6.50;;;20.90;1.00;;;;;;2616470;54;20431;-81
2022/06/15 20:54:39;;;;;;;6.17;5.70;;;21.00;1.00;;;;;;2616000;39;20904;-80
2022/06/15 21:00:27;;;;;;;6.53;4.97;;;20.90;1.00;;;;;;2617058;54;20390;-79
2022/06/15 21:06:15;;;;;;;5.27;4.77;;;20.90;1.00;;;;;;2614482;54;20133;-79
2022/06/15 21:18:10;;;;;;;6.60;6.00;;;20.70;1.00;;;;;;2614658;54;20438;-79
2022/06/15 21:23:58;;;;;;;6.87;5.10;;;20.50;1.00;;;;;;2613631;54;20382;-80
2022/06/15 21:29:46;;;;;;;6.80;4.47;;;20.40;1.00;;;;;;2613816;54;20135;-81
2022/06/15 21:35:34;;;;;;;6.73;5.20;;;20.20;1.00;;;;;;2613924;54;20427;-82
2022/06/15 21:41:22;;;;;;;6.00;5.20;;;20.10;1.00;;;;;;2613350;54;20178;-81
2022/06/15 21:47:10;;;;;;;5.33;4.67;;;20.00;1.40;;;;;;2615044;39;20521;-83
2022/06/15 22:03:11;;;;;;;9.40;5.20;;;19.50;5.70;;;;;;2612110;54;20551;-81
2022/06/15 22:08:58;;;;;;;4.63;4.30;;;19.40;7.30;;;;;;2612055;54;20140;-81
2022/06/15 22:14:46;;;;;;;5.47;5.10;;;19.40;8.70;;;;;;2612149;39;20223;-80
2022/06/15 22:20:34;;;;;;;7.83;5.57;;;19.10;9.90;;;;;;2612858;54;21114;-81
2022/06/15 22:26:21;;;;;;;6.07;5.47;;;19.20;10.80;;;;;;2612259;54;20160;-81
2022/06/15 22:32:09;;;;;;;5.33;4.80;;;19.10;11.20;;;;;;2611835;54;20158;-81
2022/06/15 22:37:56;;;;;;;7.40;5.00;;;19.00;11.70;;;;;;2611367;54;20524;-80
2022/06/15 22:43:43;;;;;;;5.37;4.87;;;18.90;12.50;;;;;;2611742;54;20137;-80
2022/06/15 22:58:58;;;;;;;6.50;5.90;;;18.60;14.00;;;;;;2614601;54;20620;-80
2022/06/15 23:04:46;;;;;;;6.67;5.27;;;18.60;12.90;;;;;;2616729;54;20386;-80
2022/06/15 23:10:34;;;;;;;6.03;5.43;;;18.40;13.70;;;;;;2613159;54;20184;-80
2022/06/15 23:16:22;;;;;;;8.93;5.43;;;18.30;14.80;;;;;;2613222;54;20402;-80
2022/06/15 23:22:09;;;;;;;6.87;5.10;;;18.40;14.30;;;;;;2614655;54;20645;-82
2022/06/15 23:27:57;;;;;;;5.53;5.10;;;18.20;16.10;;;;;;2615757;54;20141;-84
2022/06/15 23:33:46;;;;;;;6.70;6.00;;;18.20;16.50;;;;;;2615373;54;20173;-82
2022/06/15 23:39:34;;;;;;;8.10;5.50;;;18.00;17.50;;;;;;2614726;54;20506;-81
2022/06/15 23:51:30;;;;;;;8.70;5.40;;;17.60;19.80;;;;;;2614147;54;20389;-81
2022/06/15 23:54:15;;;;;;;7.37;6.13;;;17.70;19.00;;;;;;2613171;50;21009;-81
2022/06/15 23:56:40;;;;;;;10.60;6.60;;;17.60;18.90;;;;;;2613662;52;20420;-81
